Archival Weather

Norman Y Mineta San Jose Intl

San Jose, California (KSJC)

Report from: Saturday, September 30, 2023 4:49 AM PDT
Current time: Thursday, July 18, 2024 6:34 PM PDT

Current weather – Weather history – Daily summaries
Weather forecast

Temperature16.0°C (60.8°F)
Dew point13.0°C (55.4°F)
Winds 8 kts (4.1 m/s, 9.2 mph) Northwest (310°)
Visibility10 mi. (16.1 km)
Clouds Scattered clouds 1,700 ft. (518 m)
Scattered clouds 3,400 ft. (1,036 m)
Ceiling: Overcast 4,900 ft. (1,494 m)
Altimeter29.78 in.Hg (1008 mB)
Relative humidity82 %
Density altitude489 ft. (149 m)
Remarks Fully automated report
Automated weather observing station with precipitation discriminator
Flight conditions Visual Meteorological Conditions
Raw dataKSJC 301149Z AUTO 31008KT 10SM SCT017 SCT034 OVC049 16/13 A2978 RMK AO2
An error has occurred. This application may no longer respond until reloaded. Reload 🗙